Time;durP1;ratioP1;P1;durP2;ratioP2;P2;SDS_P1;SDS_P2;PMS_P1;PMS_P2;Temp;Humidity;BMP_temperature;BMP_pressure;BME280_temperature;BME280_humidity;BME280_pressure;Samples;Min_cycle;Max_cycle;Signal;HPM_P1;HPM_P2
2022/07/26 00:01:54;;;;;;;3.27;1.90;;;;;;;21.16;54.15;98736.76;1827171;77;21093;-59
2022/07/26 00:04:21;;;;;;;2.77;1.90;;;;;;;21.11;54.21;98729.78;1824273;77;21562;-58
2022/07/26 00:07:00;;;;;;;3.47;1.82;;;;;;;21.08;54.25;98726.13;1835346;77;20985;-60
2022/07/26 00:09:26;;;;;;;3.58;2.22;;;;;;;21.01;54.35;98723.81;1830810;77;20961;-59
2022/07/26 00:11:53;;;;;;;7.28;2.15;;;;;;;20.98;54.42;98718.83;1826402;77;21562;-60
2022/07/26 00:14:20;;;;;;;2.15;1.90;;;;;;;20.94;54.54;98701.56;1831584;77;21510;-60
2022/07/26 00:16:47;;;;;;;2.87;2.00;;;;;;;20.90;54.64;98705.55;1820703;77;20934;-60
2022/07/26 00:19:14;;;;;;;2.85;2.15;;;;;;;20.90;54.71;98700.24;1840222;77;22141;-60
2022/07/26 00:21:40;;;;;;;3.27;1.80;;;;;;;20.91;54.80;98692.61;1819415;77;21002;-60
2022/07/26 00:24:08;;;;;;;6.47;2.05;;;;;;;20.92;54.85;98692.92;1828718;77;21396;-59
2022/07/26 00:26:35;;;;;;;4.70;2.33;;;;;;;20.93;54.91;98686.65;1820040;77;21232;-60
2022/07/26 00:29:17;;;;;;;3.08;2.50;;;;;;;20.93;54.99;98683.99;1763964;77;21639;-60
2022/07/26 00:31:43;;;;;;;5.28;2.22;;;;;;;20.93;55.01;98678.69;1692051;82;21180;-60
2022/07/26 00:34:10;;;;;;;1.95;1.80;;;;;;;20.91;55.09;98678.02;1692390;82;20969;-59
2022/07/26 00:36:37;;;;;;;2.52;2.02;;;;;;;20.90;55.14;98674.53;1693664;82;21043;-60
2022/07/26 00:39:04;;;;;;;3.20;2.35;;;;;;;20.89;55.22;98679.99;1662973;83;22200;-61
2022/07/26 00:41:30;;;;;;;2.92;2.33;;;;;;;20.87;55.28;98679.34;1702380;82;21054;-60
2022/07/26 00:43:59;;;;;;;2.80;2.27;;;;;;;20.84;55.36;98678.32;1700881;81;21514;-60
2022/07/26 00:46:26;;;;;;;5.12;2.33;;;;;;;20.83;55.40;98680.66;1694081;82;21050;-60
2022/07/26 00:48:53;;;;;;;8.38;2.40;;;;;;;20.79;55.45;98674.85;1695093;83;21592;-60
2022/07/26 00:51:21;;;;;;;2.87;2.52;;;;;;;20.76;55.51;98673.35;1693555;82;22056;-60
2022/07/26 00:53:49;;;;;;;4.00;2.47;;;;;;;20.74;55.60;98677.16;1698401;81;20858;-60
2022/07/26 00:56:17;;;;;;;4.50;2.35;;;;;;;20.70;55.67;98682.47;1696821;82;21008;-60
2022/07/26 00:58:44;;;;;;;8.03;2.27;;;;;;;20.68;55.76;98691.08;1698180;81;21060;-60
2022/07/26 01:01:11;;;;;;;3.22;2.15;;;;;;;20.64;55.80;98682.63;1698391;81;21079;-60
2022/07/26 01:03:38;;;;;;;5.25;2.25;;;;;;;20.62;55.89;98687.25;1697388;81;21877;-60
2022/07/26 01:06:05;;;;;;;2.52;1.98;;;;;;;20.60;56.00;98689.22;1699698;81;28278;-60
2022/07/26 01:08:32;;;;;;;6.60;2.30;;;;;;;20.57;56.04;98689.55;1698406;82;20957;-60
2022/07/26 01:10:59;;;;;;;4.37;2.10;;;;;;;20.55;56.09;98691.52;1701886;81;20988;-60
2022/07/26 01:13:26;;;;;;;2.52;1.87;;;;;;;20.53;56.15;98690.87;1699784;82;21027;-59
2022/07/26 01:15:53;;;;;;;5.40;2.22;;;;;;;20.49;56.19;98697.45;1697255;82;22178;-60
2022/07/26 01:18:19;;;;;;;5.22;2.30;;;;;;;20.45;56.23;98694.80;1700403;82;21065;-60
2022/07/26 01:20:49;;;;;;;5.92;2.25;;;;;;;20.39;56.31;98691.43;1698762;81;21564;-60
2022/07/26 01:23:16;;;;;;;4.55;2.50;;;;;;;20.30;56.39;98696.70;1698675;81;20984;-59
2022/07/26 01:25:43;;;;;;;4.40;2.27;;;;;;;20.23;56.47;98700.99;1700908;82;20953;-60
2022/07/26 01:28:10;;;;;;;3.05;2.30;;;;;;;20.16;56.57;98701.78;1699925;81;21470;-59
2022/07/26 01:30:37;;;;;;;5.80;2.45;;;;;;;20.07;56.65;98698.27;1696581;82;28389;-60
2022/07/26 01:33:04;;;;;;;;;;;;;;;19.98;56.75;98697.89;1655926;84;21061;-59
2022/07/26 01:36:55;;;;;;;4.30;2.52;;;;;;;19.86;57.02;98687.56;1835785;76;22678;-59
2022/07/26 01:39:22;;;;;;;7.47;2.65;;;;;;;19.74;56.99;98684.83;1811702;78;21645;-58
2022/07/26 01:41:49;;;;;;;;;;;;;;;19.66;57.04;98680.80;1813400;77;21034;-60
2022/07/26 01:44:15;;;;;;;4.53;2.22;;;;;;;19.59;57.29;98686.36;1812009;78;20165;-60
2022/07/26 01:46:42;;;;;;;3.30;2.40;;;;;;;19.52;57.27;98685.30;1787878;80;21058;-59
2022/07/26 01:49:09;;;;;;;2.42;2.10;;;;;;;19.48;57.44;98678.67;1786368;79;21052;-59
2022/07/26 01:51:36;;;;;;;2.47;2.27;;;;;;;19.42;57.48;98678.30;1790178;79;26648;-59
2022/07/26 01:54:03;;;;;;;3.10;2.10;;;;;;;19.38;57.57;98672.13;1807326;78;21785;-59
2022/07/26 01:56:29;;;;;;;4.85;2.60;;;;;;;19.37;57.75;98669.98;1799010;78;20991;-59
2022/07/26 01:58:56;;;;;;;4.33;2.40;;;;;;;19.31;57.85;98667.95;1788329;80;20959;-59
2022/07/26 02:01:23;;;;;;;5.45;2.45;;;;;;;19.34;57.96;98680.88;1798577;78;22271;-59
2022/07/26 02:03:50;;;;;;;5.22;2.60;;;;;;;19.31;58.11;98682.52;1795643;78;20950;-59
2022/07/26 02:06:16;;;;;;;3.05;2.62;;;;;;;19.29;58.19;98679.19;1812560;78;21018;-59
2022/07/26 02:08:43;;;;;;;2.83;2.40;;;;;;;19.30;58.31;98671.60;1815224;78;21719;-58
2022/07/26 02:11:10;;;;;;;9.93;3.20;;;;;;;19.33;58.42;98678.41;1807886;78;21512;-59
2022/07/26 02:13:40;;;;;;;4.78;2.80;;;;;;;19.35;58.50;98679.92;1812006;77;21482;-59
2022/07/26 02:16:10;;;;;;;3.42;2.33;;;;;;;19.37;58.59;98677.09;1816767;78;21029;-60
2022/07/26 02:18:39;;;;;;;2.60;2.40;;;;;;;19.39;58.69;98683.91;1799125;78;21085;-60
2022/07/26 02:21:06;;;;;;;5.50;3.08;;;;;;;19.43;58.71;98693.19;1802530;78;21070;-60
2022/07/26 02:23:34;;;;;;;4.90;2.90;;;;;;;19.47;58.83;98704.32;1797399;78;21296;-60
2022/07/26 02:26:01;;;;;;;9.00;2.67;;;;;;;19.50;58.88;98711.13;1797698;78;21014;-60
2022/07/26 02:28:28;;;;;;;6.10;2.90;;;;;;;19.52;58.94;98718.40;1789299;79;24998;-60
2022/07/26 02:30:54;;;;;;;8.15;3.00;;;;;;;19.54;58.99;98725.70;1789432;79;21901;-61
2022/07/26 02:33:21;;;;;;;3.95;3.25;;;;;;;19.55;59.01;98732.65;1796316;78;21048;-60
2022/07/26 02:35:48;;;;;;;4.85;2.85;;;;;;;19.55;59.07;98727.35;1790513;79;21824;-60
2022/07/26 02:38:15;;;;;;;5.53;3.05;;;;;;;19.54;59.15;98725.70;1793408;79;20916;-60
2022/07/26 02:40:43;;;;;;;19.90;4.30;;;;;;;19.52;59.15;98728.98;1791399;79;21092;-61
2022/07/26 02:43:10;;;;;;;6.95;2.83;;;;;;;19.51;59.21;98741.40;1792773;78;21106;-60
2022/07/26 02:45:37;;;;;;;;;;;;;;;19.50;59.33;98741.57;1793547;79;21520;-60
2022/07/26 02:48:05;;;;;;;4.42;3.35;;;;;;;19.48;59.44;98744.86;1796657;79;20158;-61
2022/07/26 02:50:32;;;;;;;3.98;2.87;;;;;;;19.47;59.38;98748.50;1792404;79;21007;-60
2022/07/26 02:52:59;;;;;;;3.55;3.10;;;;;;;19.48;59.43;98747.50;1789484;79;21062;-60
2022/07/26 02:55:26;;;;;;;4.10;3.02;;;;;;;19.48;59.50;98752.80;1799381;78;21153;-60
2022/07/26 02:57:53;;;;;;;5.15;3.05;;;;;;;19.41;59.50;98730.09;1811172;78;20954;-61
2022/07/26 03:00:23;;;;;;;8.93;3.00;;;;;;;19.48;59.59;98748.83;1813723;78;20907;-60
2022/07/26 03:02:50;;;;;;;4.22;2.90;;;;;;;19.47;59.60;98747.17;1788853;80;21018;-60
2022/07/26 03:05:18;;;;;;;3.87;2.70;;;;;;;19.48;59.68;98735.59;1815602;78;21013;-60
2022/07/26 03:07:45;;;;;;;7.37;3.67;;;;;;;19.47;59.82;98724.67;1810683;78;21065;-60
2022/07/26 03:10:11;;;;;;;;;;;;;;;19.47;59.82;98724.67;1816821;78;21003;-60
2022/07/26 03:12:38;;;;;;;4.80;3.33;;;;;;;19.48;60.04;98713.09;1817067;78;20283;-60
2022/07/26 03:15:06;;;;;;;4.03;3.15;;;;;;;19.47;60.06;98711.44;1820626;78;21052;-60
2022/07/26 03:17:32;;;;;;;8.08;2.95;;;;;;;19.45;60.12;98717.70;1817039;78;22086;-60
2022/07/26 03:20:01;;;;;;;5.33;3.80;;;;;;;19.47;60.24;98711.44;1820026;78;21426;-61
2022/07/26 03:22:27;;;;;;;10.60;3.75;;;;;;;19.46;60.34;98723.81;1785986;79;20950;-60
2022/07/26 03:24:54;;;;;;;5.47;3.98;;;;;;;19.47;60.60;98726.00;1798064;78;21040;-60
2022/07/26 03:27:21;;;;;;;12.75;3.92;;;;;;;19.39;60.91;98724.94;1799223;78;21029;-61
2022/07/26 03:29:47;;;;;;;6.17;4.10;;;;;;;19.32;61.15;98722.55;1796849;78;20967;-61
2022/07/26 03:32:14;;;;;;;4.97;4.33;;;;;;;19.26;61.56;98725.80;1799649;77;21597;-60
2022/07/26 03:34:41;;;;;;;8.83;4.83;;;;;;;19.23;61.78;98734.88;1795520;79;20980;-61
2022/07/26 03:37:08;;;;;;;7.87;4.33;;;;;;;19.20;62.03;98745.77;1793430;79;21107;-60
2022/07/26 03:39:36;;;;;;;6.10;4.67;;;;;;;19.18;62.34;98750.37;1790834;79;21568;-60
2022/07/26 03:42:04;;;;;;;6.90;4.90;;;;;;;19.18;62.51;98741.61;1792206;79;20986;-60
2022/07/26 03:44:30;;;;;;;7.42;4.83;;;;;;;19.16;62.72;98748.89;1794312;79;21190;-60
2022/07/26 03:46:58;;;;;;;5.85;4.37;;;;;;;19.18;63.02;98754.84;1797539;79;20930;-60
2022/07/26 03:49:25;;;;;;;;;;;;;;;19.19;63.27;98759.16;1798177;79;21069;-61
2022/07/26 03:51:52;;;;;;;5.75;4.33;;;;;;;19.13;63.82;98770.33;1791716;79;20074;-60
2022/07/26 03:54:18;;;;;;;9.13;4.78;;;;;;;19.11;63.69;98772.31;1797279;79;21618;-60
2022/07/26 03:56:45;;;;;;;5.42;4.22;;;;;;;19.12;64.15;98763.38;1793726;79;21881;-60
2022/07/26 03:59:11;;;;;;;7.95;5.00;;;;;;;19.08;64.25;98755.42;1815767;78;20931;-61
2022/07/26 04:01:40;;;;;;;6.78;4.70;;;;;;;19.11;64.45;98762.55;1801850;78;21815;-61
2022/07/26 04:04:16;;;;;;;5.35;4.70;;;;;;;19.15;64.62;98768.38;1787890;78;21515;-61
2022/07/26 04:06:45;;;;;;;6.40;4.37;;;;;;;19.13;64.91;98778.27;1811503;78;20989;-61
2022/07/26 04:09:13;;;;;;;9.38;6.08;;;;;;;19.10;65.93;98732.27;1788193;79;21066;-60
2022/07/26 04:11:41;;;;;;;7.67;5.58;;;;;;;19.00;66.17;98758.31;1795275;78;21454;-61
2022/07/26 04:14:09;;;;;;;14.93;5.30;;;;;;;18.88;65.70;98775.38;1794606;78;21034;-61
2022/07/26 04:16:35;;;;;;;11.35;6.05;;;;;;;18.84;66.04;98768.70;1794646;78;20936;-60
2022/07/26 04:19:02;;;;;;;6.28;5.40;;;;;;;18.79;66.39;98756.41;1799892;79;20966;-61
2022/07/26 04:21:29;;;;;;;6.58;5.67;;;;;;;18.68;66.56;98775.09;1814519;78;21458;-60
2022/07/26 04:23:56;;;;;;;8.45;5.65;;;;;;;18.64;66.75;98786.95;1786432;80;20997;-60
2022/07/26 04:26:23;;;;;;;7.28;5.62;;;;;;;18.64;67.20;98793.56;1802523;78;21031;-60
2022/07/26 04:28:49;;;;;;;;;;;;;;;18.66;67.32;98804.84;1800491;78;20950;-60
2022/07/26 04:31:16;;;;;;;9.05;6.03;;;;;;;18.70;67.77;98812.80;1798283;78;20141;-61
2022/07/26 04:33:43;;;;;;;6.47;5.75;;;;;;;18.70;67.65;98814.13;1796368;78;21012;-61
2022/07/26 04:36:10;;;;;;;6.37;5.53;;;;;;;18.71;67.84;98819.28;1788526;78;21005;-60
2022/07/26 04:38:36;;;;;;;7.90;5.15;;;;;;;18.72;68.00;98817.47;1775947;78;21008;-61
2022/07/26 04:41:03;;;;;;;5.08;4.33;;;;;;;18.69;68.17;98823.88;1780980;78;21196;-60
2022/07/26 04:43:30;;;;;;;6.05;5.05;;;;;;;18.66;68.40;98833.92;1760840;78;21572;-60
2022/07/26 04:45:57;;;;;;;7.30;4.53;;;;;;;18.62;68.48;98824.59;1775955;78;22264;-61
2022/07/26 04:48:24;;;;;;;6.62;4.78;;;;;;;18.55;68.85;98829.64;1771792;78;26891;-60
2022/07/26 04:50:52;;;;;;;6.00;4.87;;;;;;;18.49;68.91;98836.34;1780821;78;21032;-60
2022/07/26 04:53:19;;;;;;;5.70;4.70;;;;;;;18.47;69.11;98840.11;1771839;78;21167;-60
2022/07/26 04:55:46;;;;;;;;;;;;;;;18.43;69.29;98838.25;1784920;78;21027;-60
2022/07/26 04:58:12;;;;;;;;;;;;;;;18.39;69.85;98835.53;1775574;78;21444;-60
2022/07/26 05:00:39;;;;;;;7.90;4.22;;;;;;;18.33;69.98;98821.08;1768376;78;20145;-60
2022/07/26 05:03:07;;;;;;;7.15;3.77;;;;;;;18.27;70.24;98823.48;1770727;78;20995;-60
2022/07/26 05:05:33;;;;;;;3.00;2.70;;;;;;;18.19;70.50;98807.50;1753888;80;21071;-61
2022/07/26 05:08:02;;;;;;;4.22;2.42;;;;;;;18.04;71.29;98807.95;1791380;79;21002;-60
2022/07/26 05:10:36;;;;;;;4.12;2.60;;;;;;;17.90;70.79;98824.25;1762705;78;21450;-59
2022/07/26 05:13:05;;;;;;;4.25;2.80;;;;;;;17.78;71.41;98824.00;1770032;78;21033;-61
2022/07/26 05:15:35;;;;;;;3.92;2.85;;;;;;;17.67;71.82;98799.89;1760933;79;21040;-61
2022/07/26 05:18:06;;;;;;;5.72;3.27;;;;;;;17.63;72.37;98815.19;1776199;79;21021;-60
2022/07/26 05:20:33;;;;;;;7.50;3.05;;;;;;;17.58;72.42;98806.84;1767508;79;21012;-61
2022/07/26 05:23:00;;;;;;;5.72;3.40;;;;;;;17.57;73.20;98797.27;1766588;78;21124;-60
2022/07/26 05:25:27;;;;;;;4.12;3.08;;;;;;;17.55;72.94;98804.48;1764272;79;20988;-61
2022/07/26 05:27:54;;;;;;;3.35;2.58;;;;;;;17.59;72.87;98812.50;1769388;79;20973;-60
2022/07/26 05:30:21;;;;;;;3.15;2.45;;;;;;;17.70;73.10;98819.91;1767110;79;20965;-60
2022/07/26 05:32:47;;;;;;;4.42;2.95;;;;;;;17.75;73.35;98819.00;1766908;79;21582;-61
2022/07/26 05:35:15;;;;;;;7.62;3.45;;;;;;;17.76;73.10;98819.37;1766427;79;21119;-60
2022/07/26 05:37:42;;;;;;;5.65;3.33;;;;;;;17.75;73.16;98813.72;1776073;79;21020;-61
2022/07/26 05:40:10;;;;;;;4.72;2.80;;;;;;;17.72;73.40;98819.28;1776707;79;21613;-60
2022/07/26 05:42:37;;;;;;;3.95;2.55;;;;;;;17.66;73.43;98820.19;1773190;79;20955;-61
2022/07/26 05:45:06;;;;;;;5.70;2.87;;;;;;;17.62;73.79;98816.17;1774467;79;21040;-60
2022/07/26 05:47:33;;;;;;;5.42;2.42;;;;;;;17.60;73.78;98815.47;1779268;79;21594;-60
2022/07/26 05:49:59;;;;;;;6.30;2.80;;;;;;;17.61;73.89;98809.20;1768821;79;20947;-61
2022/07/26 05:52:26;;;;;;;8.25;2.90;;;;;;;17.59;74.11;98813.81;1776680;79;21480;-60
2022/07/26 05:54:53;;;;;;;6.30;2.90;;;;;;;17.65;74.22;98822.98;1776960;79;21041;-61
2022/07/26 05:57:20;;;;;;;4.80;2.90;;;;;;;17.72;74.44;98829.84;1774080;79;20973;-60
2022/07/26 05:59:46;;;;;;;4.95;3.02;;;;;;;17.83;74.75;98817.84;1778249;79;21103;-61
2022/07/26 06:02:13;;;;;;;3.00;2.55;;;;;;;17.89;74.62;98809.36;1775710;79;22289;-61
2022/07/26 06:04:40;;;;;;;3.77;2.12;;;;;;;17.93;74.72;98821.32;1771976;79;20959;-61
2022/07/26 06:07:06;;;;;;;4.62;2.55;;;;;;;17.98;74.91;98823.06;1777163;79;21020;-60
2022/07/26 06:09:33;;;;;;;6.72;2.85;;;;;;;18.02;74.91;98832.35;1780694;79;21147;-60
2022/07/26 06:12:00;;;;;;;4.53;2.27;;;;;;;18.04;74.95;98843.62;1775914;79;22249;-61
2022/07/26 06:14:27;;;;;;;4.05;2.17;;;;;;;18.05;75.01;98843.95;1777960;79;20986;-60
2022/07/26 06:16:55;;;;;;;5.10;2.37;;;;;;;17.96;75.04;98842.16;1779508;79;21041;-61
2022/07/26 06:19:22;;;;;;;2.58;2.12;;;;;;;17.97;75.29;98845.64;1776485;79;20960;-60
2022/07/26 06:21:48;;;;;;;4.70;2.70;;;;;;;18.02;75.45;98849.52;1777314;79;21101;-61
2022/07/26 06:24:15;;;;;;;5.10;2.65;;;;;;;18.03;75.47;98861.74;1777663;79;21527;-61
2022/07/26 06:26:42;;;;;;;4.53;3.05;;;;;;;18.02;75.68;98856.13;1776186;79;21313;-60
2022/07/26 06:29:09;;;;;;;6.95;3.33;;;;;;;18.07;75.75;98861.00;1775055;79;21037;-61
2022/07/26 06:31:36;;;;;;;5.87;2.75;;;;;;;18.13;75.85;98863.06;1776318;79;20957;-60
2022/07/26 06:34:02;;;;;;;5.45;2.72;;;;;;;18.28;76.12;98870.05;1778395;79;21078;-60
2022/07/26 06:36:29;;;;;;;5.47;2.87;;;;;;;18.38;76.02;98868.23;1775320;79;21052;-60
2022/07/26 06:38:56;;;;;;;4.05;2.47;;;;;;;18.45;76.04;98875.92;1786348;79;21015;-61
2022/07/26 06:41:23;;;;;;;4.12;2.40;;;;;;;18.51;76.10;98879.33;1794031;78;21665;-60
2022/07/26 06:43:50;;;;;;;3.27;2.17;;;;;;;18.61;76.28;98878.46;1791075;79;21459;-61
2022/07/26 06:46:18;;;;;;;5.25;2.33;;;;;;;18.71;76.29;98867.38;1791867;78;21631;-61
2022/07/26 06:48:44;;;;;;;8.98;2.83;;;;;;;18.82;76.41;98873.83;1794298;79;21936;-61
2022/07/26 06:51:11;;;;;;;5.58;2.60;;;;;;;18.93;76.52;98882.90;1792566;78;21009;-60
2022/07/26 06:53:38;;;;;;;5.10;2.47;;;;;;;19.06;76.53;98887.01;1793962;79;20997;-60
2022/07/26 06:56:06;;;;;;;5.53;2.17;;;;;;;19.11;76.09;98885.59;1795488;79;21467;-61
2022/07/26 06:58:32;;;;;;;3.77;2.00;;;;;;;19.11;76.26;98883.44;1790903;79;21565;-61
2022/07/26 07:00:59;;;;;;;6.25;2.30;;;;;;;18.98;76.15;98881.95;1792490;78;21787;-61
2022/07/26 07:03:26;;;;;;;4.97;2.55;;;;;;;18.86;76.16;98875.19;1791336;79;20961;-60
2022/07/26 07:05:54;;;;;;;8.43;2.67;;;;;;;18.74;76.23;98869.76;1796705;78;20934;-61
2022/07/26 07:08:23;;;;;;;4.00;2.15;;;;;;;18.67;76.54;98876.06;1792838;79;20974;-64
2022/07/26 07:10:51;;;;;;;5.28;2.30;;;;;;;18.68;76.74;98883.50;1784521;79;20962;-62
2022/07/26 07:13:18;;;;;;;6.17;2.50;;;;;;;18.82;77.07;98881.77;1784945;78;21055;-61
2022/07/26 07:15:45;;;;;;;8.55;2.62;;;;;;;19.04;76.99;98877.05;1795053;78;21019;-62
2022/07/26 07:18:12;;;;;;;6.50;2.52;;;;;;;19.12;76.85;98874.51;1783826;79;21052;-62
2022/07/26 07:20:40;;;;;;;5.03;2.40;;;;;;;19.32;77.14;98870.76;1784509;78;22070;-62
2022/07/26 07:23:07;;;;;;;7.53;2.47;;;;;;;19.62;77.19;98883.32;1787860;79;20993;-61
2022/07/26 07:25:33;;;;;;;;;;;;;;;19.86;77.10;98890.20;1787390;78;21070;-60
2022/07/26 07:28:00;;;;;;;3.83;2.20;;;;;;;19.97;76.75;98886.97;1785681;79;20116;-61
2022/07/26 07:30:27;;;;;;;7.50;2.70;;;;;;;20.03;76.67;98890.36;1786748;79;21017;-60
2022/07/26 07:32:54;;;;;;;5.75;2.55;;;;;;;20.04;76.58;98895.48;1787915;78;20941;-62
2022/07/26 07:35:21;;;;;;;4.95;2.30;;;;;;;20.21;76.99;98899.59;1792017;78;20919;-61
2022/07/26 07:37:48;;;;;;;6.25;2.17;;;;;;;20.35;76.90;98906.48;1792225;78;20997;-61
2022/07/26 07:40:15;;;;;;;2.87;2.00;;;;;;;20.35;76.47;98910.97;1791806;78;21503;-60
2022/07/26 07:42:41;;;;;;;7.00;2.20;;;;;;;20.34;76.74;98915.44;1784071;79;21070;-61
2022/07/26 07:45:10;;;;;;;9.13;2.12;;;;;;;20.71;77.73;98914.38;1788954;78;20860;-60
2022/07/26 07:47:37;;;;;;;4.35;2.05;;;;;;;21.58;78.17;98904.48;1789076;79;20931;-63
2022/07/26 07:50:05;;;;;;;6.95;2.37;;;;;;;22.09;76.78;98908.35;1785696;79;21018;-62
2022/07/26 07:52:32;;;;;;;6.95;2.42;;;;;;;22.24;76.04;98912.55;1788483;79;20899;-63
2022/07/26 07:54:58;;;;;;;5.80;2.35;;;;;;;22.29;75.71;98919.03;1787905;79;21527;-64
2022/07/26 07:57:25;;;;;;;5.15;2.05;;;;;;;22.54;76.02;98917.16;1788461;79;20934;-63
2022/07/26 07:59:52;;;;;;;6.62;2.02;;;;;;;22.70;75.65;98918.14;1796016;79;20998;-61
2022/07/26 08:02:18;;;;;;;4.92;1.85;;;;;;;22.89;75.09;98920.42;1791402;79;21041;-62
2022/07/26 08:04:45;;;;;;;4.95;2.33;;;;;;;22.82;74.49;98926.08;1800585;79;21475;-62
2022/07/26 08:07:12;;;;;;;5.53;2.15;;;;;;;22.56;74.15;98930.30;1814565;78;20927;-62
2022/07/26 08:09:38;;;;;;;;;;;;;;;22.53;74.35;98934.13;1814461;78;20918;-62
2022/07/26 08:12:05;;;;;;;8.50;2.60;;;;;;;22.64;74.28;98936.94;1778215;78;20096;-62
2022/07/26 08:14:32;;;;;;;;;;;;;;;22.70;74.10;98930.11;1787206;78;21015;-61
2022/07/26 08:16:58;;;;;;;4.95;1.98;;;;;;;22.81;74.23;98923.09;1776787;79;20870;-62
2022/07/26 08:19:25;;;;;;;4.42;1.80;;;;;;;23.28;74.10;98921.48;1789204;79;20955;-62
2022/07/26 08:21:52;;;;;;;4.80;1.82;;;;;;;23.49;73.57;98915.53;1793740;77;21003;-62
2022/07/26 08:24:18;;;;;;;4.87;2.00;;;;;;;23.67;73.44;98910.78;1790288;79;27182;-61
2022/07/26 08:26:45;;;;;;;;;;;;;;;24.04;73.10;98910.55;1800770;77;21044;-62
2022/07/26 08:29:15;;;;;;;3.92;1.57;;;;;;;24.27;72.86;98911.34;1797489;79;20155;-64
2022/07/26 08:31:41;;;;;;;5.25;2.10;;;;;;;24.53;72.48;98908.80;1795515;78;20976;-62
2022/07/26 08:34:08;;;;;;;5.83;1.98;;;;;;;24.62;71.87;98918.41;1796849;78;21410;-62
2022/07/26 08:36:35;;;;;;;4.37;2.05;;;;;;;24.48;71.18;98919.21;1793821;78;21095;-62
2022/07/26 08:39:02;;;;;;;10.55;2.55;;;;;;;24.56;71.64;98915.09;1789888;79;21066;-62
2022/07/26 08:41:30;;;;;;;7.70;2.08;;;;;;;24.75;71.11;98918.58;1791902;79;20932;-62
2022/07/26 08:44:09;;;;;;;4.70;2.30;;;;;;;24.76;70.64;98925.59;1800232;79;20970;-62
2022/07/26 08:46:38;;;;;;;6.15;2.40;;;;;;;24.83;70.48;98924.34;1799421;79;20904;-64
2022/07/26 08:49:09;;;;;;;41.85;27.27;;;;;;;24.95;70.19;98916.69;1793790;77;20999;-63
2022/07/26 08:51:42;;;;;;;33.55;25.50;;;;;;;25.26;69.96;98917.02;1798081;77;20886;-63
2022/07/26 08:54:12;;;;;;;8.00;5.17;;;;;;;25.38;69.16;98914.21;1795891;79;20955;-62
2022/07/26 08:56:50;;;;;;;6.95;2.00;;;;;;;25.50;69.17;98917.22;1793282;77;20932;-63
2022/07/26 08:59:19;;;;;;;8.88;2.15;;;;;;;25.38;68.47;98923.56;1795103;79;20947;-64
2022/07/26 09:01:51;;;;;;;3.05;1.72;;;;;;;25.53;68.26;98916.33;1800431;78;20895;-61
2022/07/26 09:04:22;;;;;;;3.45;2.00;;;;;;;25.76;67.86;98911.33;1796508;79;21080;-64
2022/07/26 09:07:05;;;;;;;14.05;3.17;;;;;;;25.70;67.40;98916.09;1798480;79;21472;-65
2022/07/26 09:09:38;;;;;;;3.58;1.95;;;;;;;25.96;67.53;98919.06;1798863;79;20969;-64
2022/07/26 09:12:18;;;;;;;4.60;1.98;;;;;;;26.25;66.68;98930.66;1797444;79;20873;-65
2022/07/26 09:14:46;;;;;;;7.05;2.47;;;;;;;26.18;66.08;98929.77;1790450;79;21454;-64
2022/07/26 09:17:18;;;;;;;4.92;2.20;;;;;;;26.08;65.68;98918.89;1795011;78;21288;-64
2022/07/26 09:19:45;;;;;;;5.12;1.87;;;;;;;25.83;65.15;98925.64;1791935;79;20948;-64
2022/07/26 09:22:15;;;;;;;5.12;2.10;;;;;;;25.50;64.23;98935.41;1794799;78;21469;-63
2022/07/26 09:24:48;;;;;;;8.40;2.27;;;;;;;25.38;65.14;98936.92;1796286;77;20979;-65
2022/07/26 09:27:17;;;;;;;4.35;1.98;;;;;;;25.61;65.05;98924.23;1820394;77;20926;-65
2022/07/26 09:29:48;;;;;;;3.75;1.72;;;;;;;25.85;64.50;98922.23;1798674;78;21051;-64
2022/07/26 09:32:25;;;;;;;6.22;1.80;;;;;;;25.95;64.30;98922.77;1794333;78;20918;-65
2022/07/26 09:34:57;;;;;;;6.47;1.95;;;;;;;25.88;63.56;98920.55;1804978;78;20891;-64
2022/07/26 09:37:39;;;;;;;4.53;1.72;;;;;;;25.85;63.13;98922.23;1796384;78;20979;-65
2022/07/26 09:40:13;;;;;;;5.45;1.77;;;;;;;25.73;62.84;98939.78;1800849;78;20932;-62
2022/07/26 09:43:06;;;;;;;5.33;1.90;;;;;;;25.70;62.57;98934.81;1795349;78;21095;-63
2022/07/26 09:45:35;;;;;;;4.08;1.85;;;;;;;25.70;62.60;98932.14;1796097;78;20991;-63
2022/07/26 09:48:08;;;;;;;5.03;1.52;;;;;;;25.67;62.14;98932.83;1802969;78;20930;-64
2022/07/26 09:50:35;;;;;;;2.50;1.32;;;;;;;25.46;61.63;98939.49;1764206;78;20970;-62
2022/07/26 09:53:12;;;;;;;4.45;1.55;;;;;;;25.39;61.72;98931.89;1800775;78;20957;-62
2022/07/26 09:55:54;;;;;;;4.45;1.70;;;;;;;25.49;61.16;98933.77;1798968;78;21516;-62
2022/07/26 09:58:21;;;;;;;3.27;1.57;;;;;;;25.28;60.99;98944.39;1796369;78;20913;-64
2022/07/26 10:00:48;;;;;;;4.70;1.50;;;;;;;25.08;60.91;98946.26;1793418;78;21938;-63
2022/07/26 10:03:15;;;;;;;;;;;;;;;25.10;60.84;98948.25;1800338;78;20960;-64
2022/07/26 10:05:41;;;;;;;5.50;1.45;;;;;;;24.92;60.11;98951.77;1798733;78;20180;-64
2022/07/26 10:08:09;;;;;;;6.95;1.55;;;;;;;24.67;60.11;98953.36;1798108;78;23453;-64
2022/07/26 10:10:47;;;;;;;9.05;1.80;;;;;;;24.55;60.42;98949.48;1797318;78;20939;-64
2022/07/26 10:13:14;;;;;;;4.10;1.57;;;;;;;24.69;60.41;98946.00;1795951;78;20951;-63
2022/07/26 10:15:47;;;;;;;4.12;1.47;;;;;;;25.00;60.54;98945.84;1773492;78;21050;-64
2022/07/26 10:18:37;;;;;;;5.58;1.55;;;;;;;25.25;59.93;98950.11;1797684;78;21397;-64
2022/07/26 10:21:29;;;;;;;4.80;1.72;;;;;;;25.31;59.58;98952.03;1802208;78;21233;-66
2022/07/26 10:24:03;;;;;;;6.53;1.65;;;;;;;25.13;59.12;98947.88;1797863;78;20900;-62
2022/07/26 10:26:36;;;;;;;4.70;1.50;;;;;;;24.96;59.12;98949.08;1798260;78;20956;-61
2022/07/26 10:29:20;;;;;;;4.75;1.90;;;;;;;24.96;58.88;98959.77;1796861;78;20957;-62
2022/07/26 10:31:49;;;;;;;4.83;1.60;;;;;;;24.62;58.48;98958.44;1801300;78;20932;-61
2022/07/26 10:34:37;;;;;;;5.05;1.67;;;;;;;24.24;57.68;98967.72;1805142;78;21011;-61
2022/07/26 10:37:08;;;;;;;3.62;1.30;;;;;;;23.73;57.94;98982.06;1796063;78;21418;-60
2022/07/26 10:39:36;;;;;;;5.05;1.45;;;;;;;23.37;58.01;98987.84;1805717;78;20961;-61
2022/07/26 10:42:09;;;;;;;6.85;2.33;;;;;;;23.28;58.10;98986.73;1820361;76;20932;-61
2022/07/26 10:44:43;;;;;;;6.60;1.82;;;;;;;23.27;58.60;98991.71;1820858;78;20908;-61
2022/07/26 10:47:17;;;;;;;5.37;1.32;;;;;;;23.42;59.00;98974.84;1789412;78;21042;-62
2022/07/26 10:49:58;;;;;;;3.60;1.70;;;;;;;23.94;58.97;98977.94;1817018;78;20998;-61
2022/07/26 10:52:31;;;;;;;3.62;1.27;;;;;;;24.27;58.91;98967.36;1818309;78;20983;-62
2022/07/26 10:55:03;;;;;;;5.00;2.00;;;;;;;24.57;58.76;98968.81;1817592;78;20932;-63
2022/07/26 10:57:42;;;;;;;2.95;1.30;;;;;;;24.90;58.37;98966.66;1819565;77;20857;-61
2022/07/26 11:00:17;;;;;;;3.50;1.75;;;;;;;24.96;58.17;98975.78;1794470;78;22439;-60
2022/07/26 11:02:51;;;;;;;3.58;1.30;;;;;;;24.94;57.61;98975.13;1818034;77;20999;-60
2022/07/26 11:05:18;;;;;;;6.08;1.70;;;;;;;25.15;57.97;98983.28;1821169;78;20913;-60
2022/07/26 11:08:07;;;;;;;4.87;1.02;;;;;;;25.27;57.56;98990.83;1817961;78;20956;-60
2022/07/26 11:10:46;;;;;;;3.85;1.12;;;;;;;25.28;57.08;98983.12;1814433;78;21957;-60
2022/07/26 11:13:16;;;;;;;4.45;1.05;;;;;;;25.57;57.10;98976.43;1813918;78;21122;-61
2022/07/26 11:15:49;;;;;;;4.12;1.15;;;;;;;25.46;56.05;98986.27;1819047;77;20822;-60
2022/07/26 11:18:23;;;;;;;4.03;1.10;;;;;;;25.11;55.65;98985.95;1823249;78;21499;-60
2022/07/26 11:20:54;;;;;;;2.08;1.05;;;;;;;25.13;56.09;98990.61;1815335;78;20918;-60
2022/07/26 11:23:33;;;;;;;1.55;0.88;;;;;;;25.33;56.12;98976.73;1816651;78;20905;-60
2022/07/26 11:26:23;;;;;;;4.35;1.12;;;;;;;25.64;55.92;98984.00;1822091;78;21037;-60
2022/07/26 11:28:55;;;;;;;3.05;1.05;;;;;;;25.89;55.81;98994.41;1816853;77;20922;-61
2022/07/26 11:31:38;;;;;;;3.35;0.93;;;;;;;25.45;54.51;98999.28;1818613;78;20920;-61
2022/07/26 11:34:06;;;;;;;1.82;0.80;;;;;;;24.89;53.46;98998.88;1814058;78;21535;-63
2022/07/26 11:36:42;;;;;;;2.10;1.05;;;;;;;24.14;53.93;99005.78;1808959;78;20993;-64
2022/07/26 11:39:14;;;;;;;2.43;0.73;;;;;;;23.89;54.40;99011.80;1790251;78;21459;-63
2022/07/26 11:41:42;;;;;;;8.80;1.40;;;;;;;23.57;53.81;99008.75;1761675;79;20898;-63
2022/07/26 11:44:20;;;;;;;7.75;1.47;;;;;;;23.60;54.54;99003.08;1767750;79;21023;-63
2022/07/26 11:46:47;;;;;;;3.58;1.52;;;;;;;24.08;55.23;98995.83;1771813;79;20885;-63